Time;durP1;ratioP1;P1;durP2;ratioP2;P2;SDS_P1;SDS_P2;PMS_P1;PMS_P2;Temp;Humidity;BMP_temperature;BMP_pressure;BME280_temperature;BME280_humidity;BME280_pressure;Samples;Min_cycle;Max_cycle;Signal;HPM_P1;HPM_P2
2023/03/20 00:00:45;;;;;;;7.07;2.93;;;16.30;90.70;;;;;;6220975;23;20200;-93
2023/03/20 00:03:16;;;;;;;4.47;2.57;;;16.10;94.30;;;;;;6220207;23;20221;-93
2023/03/20 00:05:49;;;;;;;3.77;2.43;;;15.80;95.10;;;;;;6221986;23;20234;-96
2023/03/20 00:08:20;;;;;;;5.93;2.90;;;15.60;95.90;;;;;;6219858;23;20176;-94
2023/03/20 00:10:52;;;;;;;5.63;2.87;;;15.60;97.30;;;;;;6220304;23;20282;-96
2023/03/20 00:13:29;;;;;;;4.87;2.70;;;15.40;97.30;;;;;;6220520;23;20164;-95
2023/03/20 00:16:02;;;;;;;3.90;3.00;;;15.40;97.30;;;;;;6221219;23;20176;-95
2023/03/20 00:18:33;;;;;;;7.10;3.10;;;15.20;97.00;;;;;;6193946;23;20165;-94
2023/03/20 00:21:04;;;;;;;7.07;2.93;;;15.10;97.80;;;;;;6220246;23;20589;-95
2023/03/20 00:23:35;;;;;;;4.17;2.73;;;15.10;97.10;;;;;;6220306;23;20227;-94
2023/03/20 00:26:11;;;;;;;3.77;2.57;;;15.10;98.10;;;;;;6221475;23;20183;-95
2023/03/20 00:28:43;;;;;;;6.40;2.90;;;15.10;97.80;;;;;;6226071;23;20179;-95
2023/03/20 00:31:25;;;;;;;7.20;3.00;;;15.10;98.40;;;;;;6244191;23;20156;-94
2023/03/20 00:33:59;;;;;;;6.10;2.73;;;15.00;99.10;;;;;;6243868;23;20153;-96
2023/03/20 00:36:30;;;;;;;3.97;3.17;;;15.00;98.90;;;;;;6228889;23;20191;-94
2023/03/20 00:39:02;;;;;;;5.00;2.77;;;14.90;98.30;;;;;;6225357;23;20188;-95
2023/03/20 00:41:35;;;;;;;7.63;3.07;;;14.90;98.70;;;;;;6224418;23;20728;-94
2023/03/20 00:44:20;;;;;;;5.30;3.00;;;14.90;98.30;;;;;;6221277;23;20168;-93
2023/03/20 00:46:56;;;;;;;5.07;2.70;;;14.80;99.10;;;;;;6196675;23;20180;-93
2023/03/20 00:49:30;;;;;;;6.93;3.43;;;14.70;99.80;;;;;;6220220;23;20180;-93
2023/03/20 00:52:02;;;;;;;4.13;2.80;;;14.70;99.90;;;;;;6219954;23;20549;-92
2023/03/20 00:54:36;;;;;;;5.40;2.87;;;14.70;99.90;;;;;;6220208;23;20168;-94
2023/03/20 00:57:09;;;;;;;6.30;2.87;;;14.60;99.90;;;;;;6218905;23;20164;-93
2023/03/20 00:59:42;;;;;;;3.93;2.80;;;14.50;99.90;;;;;;6218057;23;20219;-93
2023/03/20 01:02:17;;;;;;;5.13;3.10;;;14.50;99.90;;;;;;6218086;23;20740;-92
2023/03/20 01:04:48;;;;;;;4.50;2.80;;;14.40;99.90;;;;;;6219015;23;20171;-92
2023/03/20 01:07:19;;;;;;;4.77;2.50;;;14.30;99.90;;;;;;6217518;23;20484;-93
2023/03/20 01:09:51;;;;;;;5.47;2.90;;;14.20;99.90;;;;;;6220235;23;20223;-93
2023/03/20 01:12:22;;;;;;;3.90;2.90;;;14.10;99.90;;;;;;6235497;23;20183;-95
2023/03/20 01:14:57;;;;;;;5.20;3.13;;;14.00;99.90;;;;;;6232371;23;20603;-95
2023/03/20 01:17:31;;;;;;;6.97;2.60;;;14.00;99.90;;;;;;6217319;23;20179;-94
2023/03/20 01:20:02;;;;;;;3.03;2.50;;;13.90;99.90;;;;;;6219098;23;20179;-95
2023/03/20 01:22:33;;;;;;;5.63;3.00;;;13.90;99.90;;;;;;6218816;23;20196;-94
2023/03/20 01:25:05;;;;;;;6.70;2.90;;;13.80;99.90;;;;;;6192518;23;20184;-95
2023/03/20 01:27:37;;;;;;;6.47;3.07;;;13.70;99.90;;;;;;6192595;23;20169;-95
2023/03/20 01:30:22;;;;;;;4.47;2.80;;;13.70;99.90;;;;;;6218919;23;20180;-94
2023/03/20 01:32:56;;;;;;;6.53;3.10;;;13.70;99.90;;;;;;6219098;23;20607;-95
2023/03/20 01:35:29;;;;;;;9.13;3.27;;;13.60;99.90;;;;;;6219173;23;20171;-96
2023/03/20 01:38:00;;;;;;;5.73;3.07;;;13.60;99.90;;;;;;6193805;23;20180;-95
2023/03/20 01:40:36;;;;;;;7.07;3.57;;;13.60;99.90;;;;;;6221953;23;20184;-93
2023/03/20 01:43:14;;;;;;;8.00;3.47;;;13.50;99.90;;;;;;6219269;23;20307;-94
2023/03/20 01:45:53;;;;;;;6.87;3.83;;;13.50;99.90;;;;;;6219543;23;20169;-93
2023/03/20 01:48:48;;;;;;;6.70;3.13;;;13.40;99.90;;;;;;6218318;23;20294;-92
2023/03/20 01:51:20;;;;;;;6.83;3.80;;;13.40;99.90;;;;;;6218043;23;20185;-93
2023/03/20 01:53:55;;;;;;;5.50;3.10;;;13.30;99.90;;;;;;6218902;23;20191;-92
2023/03/20 01:56:29;;;;;;;3.93;2.87;;;13.30;99.90;;;;;;6219407;23;20635;-93
2023/03/20 01:59:06;;;;;;;4.40;3.10;;;13.30;99.90;;;;;;6219897;23;20179;-93
2023/03/20 02:01:39;;;;;;;4.20;2.97;;;13.30;99.90;;;;;;6241750;23;20200;-89
2023/03/20 02:04:15;;;;;;;5.30;2.87;;;13.20;99.90;;;;;;6242753;23;20176;-93
2023/03/20 02:06:47;;;;;;;5.77;3.10;;;13.20;99.90;;;;;;6240918;23;20156;-93
2023/03/20 02:09:20;;;;;;;5.00;3.13;;;13.20;99.90;;;;;;6239021;23;20220;-93
2023/03/20 02:11:51;;;;;;;6.63;3.20;;;13.20;99.90;;;;;;6238318;23;20169;-93
2023/03/20 02:14:23;;;;;;;5.53;3.50;;;13.10;99.90;;;;;;6238245;23;20165;-93
2023/03/20 02:16:55;;;;;;;4.03;3.07;;;13.00;99.90;;;;;;6223175;23;20195;-94
2023/03/20 02:19:35;;;;;;;8.30;3.40;;;13.00;99.90;;;;;;6219435;23;20636;-95
2023/03/20 02:22:27;;;;;;;6.33;3.50;;;12.90;99.90;;;;;;6218942;23;20250;-94
2023/03/20 02:25:36;;;;;;;5.87;3.27;;;12.90;99.90;;;;;;6221903;23;20226;-95
2023/03/20 02:28:39;;;;;;;5.43;3.10;;;12.80;99.90;;;;;;6218819;23;20168;-94
2023/03/20 02:31:41;;;;;;;5.70;3.23;;;12.70;99.90;;;;;;6219533;23;20168;-95
2023/03/20 02:34:54;;;;;;;5.57;3.07;;;12.70;99.90;;;;;;6195439;23;20507;-95
2023/03/20 02:37:50;;;;;;;5.87;3.17;;;12.70;99.90;;;;;;6238187;23;20179;-96
2023/03/20 02:40:33;;;;;;;7.50;3.37;;;12.70;99.90;;;;;;6240615;23;20165;-94
2023/03/20 02:43:12;;;;;;;3.73;2.80;;;12.70;99.90;;;;;;6232970;23;20196;-96
2023/03/20 02:45:50;;;;;;;5.43;3.93;;;12.70;99.90;;;;;;6223675;23;20228;-96
2023/03/20 02:48:33;;;;;;;6.73;3.40;;;12.70;99.90;;;;;;6223009;23;20180;-95
2023/03/20 02:51:11;;;;;;;4.80;3.50;;;12.60;99.90;;;;;;6222274;23;20169;-94
2023/03/20 02:53:52;;;;;;;8.00;3.43;;;12.60;99.90;;;;;;6219537;23;20187;-93
2023/03/20 02:56:32;;;;;;;5.63;3.67;;;12.50;99.90;;;;;;6219095;23;20176;-95
2023/03/20 02:59:12;;;;;;;6.60;4.00;;;12.50;99.90;;;;;;6217530;23;20681;-95
2023/03/20 03:01:48;;;;;;;6.23;3.30;;;12.50;99.90;;;;;;6217802;23;20182;-94
2023/03/20 03:04:23;;;;;;;6.70;4.37;;;12.50;99.90;;;;;;6218374;23;20165;-94
2023/03/20 03:06:57;;;;;;;5.70;3.63;;;12.40;99.90;;;;;;6219240;23;20553;-93
2023/03/20 03:09:34;;;;;;;6.73;3.30;;;12.40;99.90;;;;;;6216406;23;20234;-93
2023/03/20 03:12:11;;;;;;;6.93;3.50;;;12.30;99.90;;;;;;6216661;23;20170;-94
2023/03/20 03:14:47;;;;;;;7.10;3.57;;;12.30;99.90;;;;;;6217735;23;20173;-94
2023/03/20 03:17:20;;;;;;;5.30;3.67;;;12.30;99.90;;;;;;6216449;23;20164;-94
2023/03/20 03:19:57;;;;;;;7.83;3.90;;;12.20;99.90;;;;;;6216915;23;20180;-95
2023/03/20 03:22:28;;;;;;;9.87;3.57;;;12.20;99.90;;;;;;6217831;23;20208;-96
2023/03/20 03:25:02;;;;;;;6.93;3.57;;;12.20;99.90;;;;;;6218622;23;20172;-96
2023/03/20 03:27:38;;;;;;;8.10;3.70;;;12.10;99.90;;;;;;6168314;23;20180;-96
2023/03/20 03:30:16;;;;;;;11.03;3.57;;;12.10;99.90;;;;;;6218628;23;20233;-96
2023/03/20 03:32:51;;;;;;;5.93;3.43;;;12.10;99.90;;;;;;6219900;23;20165;-96
2023/03/20 03:35:23;;;;;;;5.53;3.70;;;12.10;99.90;;;;;;6192874;23;20194;-93
2023/03/20 03:38:03;;;;;;;4.40;3.33;;;12.00;99.90;;;;;;6218094;23;20242;-95
2023/03/20 03:40:41;;;;;;;6.90;3.33;;;12.00;99.90;;;;;;6194392;23;20171;-96
2023/03/20 03:43:19;;;;;;;6.67;4.03;;;11.90;99.90;;;;;;6219313;23;20204;-95
2023/03/20 03:45:54;;;;;;;7.63;3.80;;;11.90;99.90;;;;;;6192825;23;20219;-96
2023/03/20 03:48:31;;;;;;;5.23;3.30;;;11.90;99.90;;;;;;6215390;23;20172;-96
2023/03/20 03:51:08;;;;;;;6.60;3.07;;;11.80;99.90;;;;;;6232995;23;20251;-96
2023/03/20 03:53:47;;;;;;;7.93;3.63;;;11.80;99.90;;;;;;6230336;23;20184;-95
2023/03/20 03:56:25;;;;;;;5.37;3.50;;;11.70;99.90;;;;;;6221839;23;20634;-95
2023/03/20 03:59:02;;;;;;;5.27;3.10;;;11.70;99.90;;;;;;6224839;23;20160;-95
2023/03/20 04:01:36;;;;;;;5.77;3.57;;;11.70;99.90;;;;;;6206933;23;20184;-96
2023/03/20 04:04:11;;;;;;;7.60;3.77;;;11.70;99.90;;;;;;6225190;23;20208;-95
2023/03/20 04:06:55;;;;;;;10.43;3.67;;;11.60;99.90;;;;;;6233273;23;20164;-95
2023/03/20 04:09:39;;;;;;;7.77;3.27;;;11.60;99.90;;;;;;6232365;23;20184;-96
2023/03/20 04:16:16;;;;;;;5.47;3.37;;;11.50;99.90;;;;;;6227989;23;20173;-96
2023/03/20 04:18:51;;;;;;;4.47;3.17;;;11.50;99.90;;;;;;6229777;23;20227;-96
2023/03/20 04:21:23;;;;;;;3.80;3.40;;;11.50;99.90;;;;;;6220525;23;20180;-96
2023/03/20 04:23:56;;;;;;;7.30;3.63;;;11.50;99.90;;;;;;6222180;23;20211;-96
2023/03/20 04:26:29;;;;;;;7.87;3.93;;;11.50;99.90;;;;;;6225370;23;20183;-96
2023/03/20 04:29:04;;;;;;;7.53;3.40;;;11.40;99.90;;;;;;6213719;23;20173;-96
2023/03/20 04:42:29;;;;;;;6.60;3.63;;;11.30;99.90;;;;;;6237133;22;20183;-96
2023/03/20 04:45:01;;;;;;;5.97;3.60;;;11.30;99.90;;;;;;6244111;23;20159;-96
2023/03/20 04:47:34;;;;;;;8.37;4.10;;;11.30;99.90;;;;;;6243304;23;20179;-96
2023/03/20 04:50:10;;;;;;;5.03;3.67;;;11.30;99.90;;;;;;6240643;23;20195;-96
2023/03/20 04:52:46;;;;;;;7.00;3.83;;;11.30;99.90;;;;;;6238354;23;20172;-95
2023/03/20 04:55:18;;;;;;;4.03;3.33;;;11.40;99.90;;;;;;6237583;23;20194;-96
2023/03/20 04:57:57;;;;;;;5.37;3.63;;;11.40;99.90;;;;;;6237866;23;20182;-96
2023/03/20 05:00:29;;;;;;;6.70;3.37;;;11.30;99.90;;;;;;6241310;23;20239;-95
2023/03/20 05:03:01;;;;;;;5.93;3.40;;;11.20;99.90;;;;;;6228621;23;20196;-94
2023/03/20 05:05:36;;;;;;;6.57;3.53;;;11.20;99.90;;;;;;6221622;23;20176;-95
2023/03/20 05:08:08;;;;;;;6.80;3.47;;;11.20;99.90;;;;;;6173304;23;20172;-92
2023/03/20 05:10:40;;;;;;;5.57;3.10;;;11.20;99.90;;;;;;6218585;23;20176;-91
2023/03/20 05:13:14;;;;;;;4.40;3.27;;;11.20;99.90;;;;;;6218205;23;20176;-91
2023/03/20 05:15:46;;;;;;;5.47;3.13;;;11.10;99.90;;;;;;6218277;23;20181;-90
2023/03/20 05:18:17;;;;;;;7.83;3.47;;;11.10;99.90;;;;;;6217230;23;20183;-90
2023/03/20 05:20:49;;;;;;;5.90;3.60;;;11.10;99.90;;;;;;6217995;23;20339;-91
2023/03/20 05:23:21;;;;;;;4.80;4.10;;;11.00;99.90;;;;;;6222234;23;20196;-94
2023/03/20 05:25:54;;;;;;;7.03;3.40;;;11.00;99.90;;;;;;6224497;23;20216;-96
2023/03/20 05:28:31;;;;;;;6.43;3.43;;;11.10;99.90;;;;;;6228125;23;20239;-96
2023/03/20 05:31:04;;;;;;;3.20;2.80;;;11.00;99.90;;;;;;6235014;23;20168;-96
2023/03/20 05:33:35;;;;;;;6.33;3.40;;;11.00;99.90;;;;;;6232630;23;20184;-95
2023/03/20 05:36:09;;;;;;;5.43;3.47;;;11.00;99.90;;;;;;6201938;23;20192;-93
2023/03/20 05:38:43;;;;;;;4.47;3.40;;;10.90;99.90;;;;;;6196193;23;20561;-94
2023/03/20 05:41:16;;;;;;;6.67;3.60;;;10.90;99.90;;;;;;6222618;23;20188;-96
2023/03/20 05:43:50;;;;;;;7.33;3.80;;;10.90;99.90;;;;;;6223636;23;20208;-96
2023/03/20 05:46:22;;;;;;;5.03;3.33;;;10.90;99.90;;;;;;6225688;23;20172;-95
2023/03/20 05:48:54;;;;;;;4.37;3.27;;;10.90;99.90;;;;;;6222051;23;20474;-94
2023/03/20 05:51:28;;;;;;;5.47;3.57;;;10.90;99.90;;;;;;6218780;23;20211;-91
2023/03/20 05:54:00;;;;;;;6.77;3.47;;;10.90;99.90;;;;;;6220186;23;20173;-93
2023/03/20 05:56:32;;;;;;;9.57;3.70;;;10.80;99.90;;;;;;6227329;23;20169;-96
2023/03/20 05:59:07;;;;;;;7.43;3.80;;;10.80;99.90;;;;;;6211783;23;20168;-96
2023/03/20 06:01:39;;;;;;;5.50;3.40;;;10.80;99.90;;;;;;6228593;23;20226;-96
2023/03/20 06:04:11;;;;;;;5.07;3.53;;;10.70;99.90;;;;;;6210987;23;20193;-96
2023/03/20 06:06:43;;;;;;;5.23;3.03;;;10.70;99.90;;;;;;6172241;23;20164;-94
2023/03/20 06:09:15;;;;;;;4.60;3.37;;;10.60;99.90;;;;;;6218389;23;20517;-94
2023/03/20 06:11:47;;;;;;;5.00;3.30;;;10.60;99.90;;;;;;6218347;23;20180;-94
2023/03/20 06:14:21;;;;;;;6.67;3.50;;;10.60;99.90;;;;;;6218665;23;20239;-94
2023/03/20 06:16:54;;;;;;;5.03;2.90;;;10.50;99.90;;;;;;6219925;23;20175;-94
2023/03/20 06:19:26;;;;;;;3.63;2.93;;;10.50;99.90;;;;;;6218031;23;20172;-95
2023/03/20 06:21:58;;;;;;;5.73;3.33;;;10.50;99.90;;;;;;6218381;23;20545;-94
2023/03/20 06:24:30;;;;;;;6.10;3.40;;;10.50;99.90;;;;;;6217834;23;20227;-94
2023/03/20 06:27:03;;;;;;;4.10;2.70;;;10.30;99.90;;;;;;6218428;23;20177;-95
2023/03/20 06:29:38;;;;;;;4.57;3.00;;;10.30;99.90;;;;;;6217990;23;20580;-94
2023/03/20 06:32:11;;;;;;;4.90;3.47;;;10.30;99.90;;;;;;6218130;23;20176;-93
2023/03/20 06:34:42;;;;;;;8.47;3.83;;;10.20;99.90;;;;;;6218580;23;20204;-96
2023/03/20 06:37:14;;;;;;;6.63;3.37;;;10.20;99.90;;;;;;6223587;23;20557;-95
2023/03/20 06:39:45;;;;;;;6.30;3.70;;;10.10;99.90;;;;;;6223240;23;20184;-95
2023/03/20 06:42:17;;;;;;;5.20;3.60;;;10.10;99.90;;;;;;6225000;23;20239;-96
2023/03/20 06:44:52;;;;;;;6.03;3.57;;;10.10;99.90;;;;;;6225779;23;20208;-96
2023/03/20 06:47:24;;;;;;;6.47;4.23;;;10.10;99.90;;;;;;6200877;23;20187;-95
2023/03/20 06:49:56;;;;;;;5.17;3.30;;;10.10;99.90;;;;;;6230523;23;20172;-96
2023/03/20 06:52:31;;;;;;;6.07;3.43;;;10.10;99.90;;;;;;6210789;23;20173;-96
2023/03/20 06:55:04;;;;;;;4.73;3.47;;;10.10;99.90;;;;;;6216330;23;20164;-96
2023/03/20 06:57:37;;;;;;;6.43;3.70;;;10.10;99.90;;;;;;6241137;23;20180;-96
2023/03/20 07:00:14;;;;;;;6.73;4.33;;;10.20;99.90;;;;;;6229191;23;20184;-96
2023/03/20 07:02:51;;;;;;;7.37;4.30;;;10.00;99.90;;;;;;6235005;23;20187;-96
2023/03/20 07:05:24;;;;;;;6.40;3.60;;;9.90;99.90;;;;;;6232671;23;20210;-96
2023/03/20 07:07:56;;;;;;;7.50;3.60;;;10.00;99.90;;;;;;6229871;23;20173;-96
2023/03/20 07:10:28;;;;;;;4.60;3.27;;;10.00;99.90;;;;;;6198718;23;20172;-94
2023/03/20 07:13:01;;;;;;;6.27;3.87;;;10.00;99.90;;;;;;6219924;23;20230;-93
2023/03/20 07:15:34;;;;;;;4.90;3.57;;;10.10;99.90;;;;;;6219368;23;20168;-94
2023/03/20 07:18:07;;;;;;;5.73;3.70;;;10.00;99.90;;;;;;6219731;23;20204;-95
2023/03/20 07:20:40;;;;;;;6.17;3.63;;;10.00;99.90;;;;;;6222011;23;20191;-95
2023/03/20 07:23:11;;;;;;;5.53;3.23;;;9.90;99.90;;;;;;6224530;23;20168;-95
2023/03/20 07:25:43;;;;;;;5.43;3.67;;;9.90;99.90;;;;;;6195766;23;20204;-93
2023/03/20 07:28:16;;;;;;;5.20;3.60;;;9.90;99.90;;;;;;6217196;23;20177;-93
2023/03/20 07:30:51;;;;;;;5.33;3.33;;;9.80;99.90;;;;;;6218498;23;20610;-93
2023/03/20 07:33:23;;;;;;;4.43;3.47;;;9.90;99.90;;;;;;6219611;23;20218;-93
2023/03/20 07:35:55;;;;;;;9.03;3.53;;;9.80;99.90;;;;;;6235962;23;20165;-93
2023/03/20 07:38:27;;;;;;;4.83;3.33;;;9.70;99.90;;;;;;6239149;23;20212;-94
2023/03/20 07:41:02;;;;;;;6.97;3.77;;;9.70;99.90;;;;;;6241031;23;20188;-95
2023/03/20 07:43:34;;;;;;;5.37;3.17;;;9.60;99.90;;;;;;6242172;23;20181;-94
2023/03/20 07:46:13;;;;;;;6.57;3.80;;;9.60;99.90;;;;;;6242536;23;20203;-95
2023/03/20 07:48:46;;;;;;;6.50;3.50;;;9.60;99.90;;;;;;6241661;23;20172;-95
2023/03/20 07:51:19;;;;;;;6.03;3.70;;;9.50;99.90;;;;;;6236263;23;20203;-96
2023/03/20 07:53:52;;;;;;;6.30;4.13;;;9.40;99.90;;;;;;6203638;23;20171;-95
2023/03/20 07:56:23;;;;;;;4.87;3.63;;;9.40;99.90;;;;;;6225475;23;20177;-95
2023/03/20 07:58:55;;;;;;;5.93;3.43;;;9.40;99.90;;;;;;6199622;23;20239;-95
2023/03/20 08:01:30;;;;;;;5.83;3.60;;;9.30;99.90;;;;;;6225948;23;20169;-96
2023/03/20 08:04:02;;;;;;;5.70;3.67;;;9.30;99.90;;;;;;6231317;23;20176;-96
2023/03/20 08:06:34;;;;;;;5.43;3.53;;;9.40;99.90;;;;;;6237250;23;20203;-95
2023/03/20 08:09:08;;;;;;;5.63;3.33;;;9.30;99.90;;;;;;6241296;23;20157;-95
2023/03/20 08:11:40;;;;;;;6.77;3.67;;;9.30;99.90;;;;;;6240200;23;20180;-96
2023/03/20 08:14:12;;;;;;;7.60;4.07;;;9.30;99.90;;;;;;6241745;23;20176;-96
2023/03/20 08:16:46;;;;;;;6.47;3.70;;;9.30;99.90;;;;;;6232392;23;20177;-94
2023/03/20 08:19:32;;;;;;;6.50;3.57;;;9.30;99.90;;;;;;6237838;23;20589;-93
2023/03/20 08:22:03;;;;;;;5.13;3.33;;;9.30;99.90;;;;;;6239177;23;20169;-93
2023/03/20 08:24:36;;;;;;;4.50;3.77;;;9.30;99.90;;;;;;6232303;23;20226;-94
2023/03/20 08:27:08;;;;;;;4.07;3.40;;;9.30;99.90;;;;;;6222117;23;20191;-95
2023/03/20 08:29:40;;;;;;;9.40;3.90;;;9.30;99.90;;;;;;6222376;23;20172;-94
2023/03/20 08:32:14;;;;;;;5.00;3.70;;;9.30;99.90;;;;;;6222339;23;20543;-95
2023/03/20 08:34:45;;;;;;;6.50;4.07;;;9.30;99.90;;;;;;6223137;23;20180;-92
2023/03/20 08:37:17;;;;;;;6.00;4.10;;;9.30;99.90;;;;;;6237893;23;20212;-93
2023/03/20 08:39:49;;;;;;;6.07;3.70;;;9.30;99.90;;;;;;6237139;23;20169;-92
2023/03/20 08:42:21;;;;;;;6.23;4.10;;;9.30;99.90;;;;;;6235982;23;20218;-94
2023/03/20 08:44:53;;;;;;;5.90;3.67;;;9.30;99.90;;;;;;6235963;23;20235;-96
2023/03/20 08:47:28;;;;;;;6.07;3.50;;;9.30;99.90;;;;;;6243644;23;20161;-96
2023/03/20 08:49:59;;;;;;;5.80;3.57;;;9.30;99.90;;;;;;6242140;23;20191;-95
2023/03/20 08:52:35;;;;;;;5.93;3.80;;;9.30;99.90;;;;;;6240597;23;20223;-96
2023/03/20 08:55:10;;;;;;;4.30;3.47;;;9.30;99.90;;;;;;6234979;23;20169;-95
2023/03/20 08:57:42;;;;;;;10.53;4.60;;;9.20;99.90;;;;;;6238242;23;20228;-96
2023/03/20 09:00:18;;;;;;;5.67;3.80;;;9.20;99.90;;;;;;6240809;23;20207;-96
2023/03/20 09:02:52;;;;;;;7.20;4.00;;;9.20;99.90;;;;;;6235458;23;20222;-95
2023/03/20 09:05:24;;;;;;;5.70;4.07;;;9.10;99.90;;;;;;6243700;23;20243;-95
2023/03/20 09:07:56;;;;;;;5.80;4.17;;;9.10;99.90;;;;;;6243713;23;20177;-96
2023/03/20 09:10:27;;;;;;;7.47;3.80;;;9.10;99.90;;;;;;6240888;23;20207;-96
2023/03/20 09:12:59;;;;;;;5.37;3.73;;;9.10;99.90;;;;;;6236668;23;20176;-96
2023/03/20 09:15:45;;;;;;;6.27;3.53;;;9.10;99.90;;;;;;6232941;23;20176;-95
2023/03/20 09:18:20;;;;;;;6.17;4.10;;;9.00;99.90;;;;;;6233227;23;20255;-95
2023/03/20 09:20:52;;;;;;;6.47;3.57;;;9.00;99.90;;;;;;6227763;23;20175;-94
2023/03/20 09:23:25;;;;;;;4.53;3.27;;;9.10;99.90;;;;;;6220765;23;20177;-95
2023/03/20 09:25:57;;;;;;;6.17;4.20;;;9.00;99.90;;;;;;6221597;23;20192;-93
2023/03/20 09:28:29;;;;;;;5.00;3.60;;;9.00;99.90;;;;;;6223748;23;20176;-93
2023/03/20 09:31:04;;;;;;;6.87;3.87;;;9.00;99.90;;;;;;6224476;23;20230;-94
2023/03/20 09:33:37;;;;;;;5.23;3.53;;;9.00;99.90;;;;;;6225923;23;20177;-93
2023/03/20 09:36:10;;;;;;;8.60;3.97;;;9.00;99.90;;;;;;6226400;23;20239;-94
2023/03/20 09:38:41;;;;;;;4.40;3.43;;;8.90;99.90;;;;;;6221535;23;20687;-93
2023/03/20 09:41:19;;;;;;;4.60;3.70;;;8.90;99.90;;;;;;6221562;23;20195;-93
2023/03/20 09:44:06;;;;;;;5.80;4.03;;;9.00;99.90;;;;;;6220275;23;20180;-94
2023/03/20 09:47:07;;;;;;;6.30;4.00;;;9.10;99.90;;;;;;6220091;23;20200;-95
2023/03/20 09:50:04;;;;;;;7.60;4.33;;;8.90;99.90;;;;;;6223191;23;20176;-96
2023/03/20 09:52:40;;;;;;;7.67;3.97;;;8.80;99.90;;;;;;6233689;23;20219;-96
2023/03/20 09:55:17;;;;;;;12.13;4.20;;;8.80;99.90;;;;;;6235962;23;20212;-95
2023/03/20 09:57:52;;;;;;;8.53;4.30;;;8.70;99.90;;;;;;6233651;23;20199;-96
2023/03/20 10:00:28;;;;;;;5.83;4.43;;;8.70;99.90;;;;;;6238616;23;20194;-96
2023/03/20 10:03:02;;;;;;;7.50;3.70;;;8.70;99.90;;;;;;6211207;23;20168;-95
2023/03/20 10:05:40;;;;;;;8.43;4.70;;;8.70;99.90;;;;;;6238656;23;20235;-96
2023/03/20 10:08:16;;;;;;;8.70;5.03;;;8.70;99.90;;;;;;6239391;23;20176;-96
2023/03/20 10:10:54;;;;;;;6.60;4.33;;;8.80;99.90;;;;;;6239468;23;20172;-96
2023/03/20 10:13:45;;;;;;;7.13;4.13;;;8.70;99.90;;;;;;6237006;23;20189;-95
2023/03/20 10:16:26;;;;;;;7.23;4.20;;;8.60;99.90;;;;;;6236721;23;20180;-96
2023/03/20 10:19:06;;;;;;;8.33;4.80;;;8.60;99.90;;;;;;6236110;23;20183;-96
2023/03/20 10:21:46;;;;;;;9.23;4.43;;;8.60;99.90;;;;;;6236572;23;20195;-94
2023/03/20 10:24:24;;;;;;;6.37;4.57;;;8.60;99.90;;;;;;6238082;23;20168;-95
2023/03/20 10:26:59;;;;;;;7.80;4.70;;;8.60;99.90;;;;;;6224495;23;20188;-93
2023/03/20 10:29:41;;;;;;;8.13;4.80;;;8.60;99.90;;;;;;6220746;23;20179;-94
2023/03/20 10:32:22;;;;;;;10.97;5.40;;;8.60;99.90;;;;;;6220806;23;20200;-95
2023/03/20 10:35:09;;;;;;;5.77;4.53;;;8.70;99.90;;;;;;6219284;23;20633;-95
2023/03/20 10:38:08;;;;;;;9.57;5.57;;;8.60;99.90;;;;;;6219478;23;20646;-94
2023/03/20 10:40:42;;;;;;;9.30;4.63;;;8.50;99.90;;;;;;6219487;23;20184;-94
2023/03/20 10:43:23;;;;;;;7.67;5.57;;;8.50;99.90;;;;;;6220275;23;20182;-95
2023/03/20 10:46:00;;;;;;;9.23;5.63;;;8.50;99.90;;;;;;6219542;23;20192;-94
2023/03/20 10:48:37;;;;;;;10.50;5.80;;;8.40;99.90;;;;;;6218615;23;20196;-95
2023/03/20 10:51:14;;;;;;;8.73;6.00;;;8.40;99.90;;;;;;6219265;23;20180;-93
2023/03/20 10:53:50;;;;;;;9.70;6.13;;;8.40;99.90;;;;;;6219175;23;20176;-95
2023/03/20 10:56:30;;;;;;;10.83;6.77;;;8.40;99.90;;;;;;6224093;23;20183;-96
2023/03/20 10:59:11;;;;;;;8.93;6.30;;;8.40;99.90;;;;;;6224791;23;20251;-96
2023/03/20 11:02:22;;;;;;;11.73;7.00;;;8.40;99.90;;;;;;6230063;23;20195;-96
2023/03/20 11:04:53;;;;;;;12.43;7.83;;;8.40;99.90;;;;;;6235833;23;20184;-96
2023/03/20 11:07:29;;;;;;;10.40;7.07;;;8.40;99.90;;;;;;6234898;23;20200;-96
2023/03/20 11:10:17;;;;;;;11.27;7.27;;;8.40;99.90;;;;;;6241137;23;20167;-96
2023/03/20 11:12:51;;;;;;;11.20;7.90;;;8.40;99.90;;;;;;6241702;23;20187;-96
2023/03/20 11:21:42;;;;;;;12.93;8.93;;;8.50;99.90;;;;;;6233404;23;20176;-96
2023/03/20 11:24:39;;;;;;;11.23;8.40;;;8.50;99.90;;;;;;6226712;23;20176;-96
2023/03/20 11:27:52;;;;;;;11.33;7.60;;;8.40;99.90;;;;;;6225770;23;20196;-96
2023/03/20 11:33:34;;;;;;;13.13;7.87;;;8.40;99.90;;;;;;6219400;23;20179;-93
2023/03/20 11:36:14;;;;;;;12.83;8.50;;;8.40;99.90;;;;;;6218352;23;20176;-95
2023/03/20 11:38:47;;;;;;;10.90;8.17;;;8.40;99.90;;;;;;6217090;23;20175;-96
2023/03/20 11:41:28;;;;;;;11.13;7.30;;;8.40;99.90;;;;;;6218700;23;20200;-95
2023/03/20 11:44:01;;;;;;;10.53;7.70;;;8.40;99.90;;;;;;6218613;23;20172;-94
2023/03/20 11:46:34;;;;;;;12.20;8.20;;;8.40;99.90;;;;;;6219246;23;20195;-94
2023/03/20 11:49:21;;;;;;;13.07;7.30;;;8.40;99.90;;;;;;6217995;23;20207;-94
2023/03/20 11:51:53;;;;;;;10.20;6.80;;;8.40;99.90;;;;;;6217626;23;20223;-95
2023/03/20 11:54:26;;;;;;;9.80;7.33;;;8.50;99.90;;;;;;6218409;23;20180;-95
2023/03/20 11:57:01;;;;;;;9.03;7.27;;;8.50;99.90;;;;;;6169412;23;20569;-95
2023/03/20 12:02:27;;;;;;;10.47;7.57;;;8.50;99.90;;;;;;6237395;23;20176;-96
2023/03/20 12:05:02;;;;;;;11.47;7.70;;;8.50;99.90;;;;;;6231495;23;20183;-96
2023/03/20 12:07:37;;;;;;;11.37;8.50;;;8.40;99.90;;;;;;6231461;23;20200;-96
2023/03/20 12:10:14;;;;;;;12.30;7.37;;;8.40;99.90;;;;;;6236187;23;20164;-96
2023/03/20 12:12:49;;;;;;;11.03;7.50;;;8.40;99.90;;;;;;6241717;23;20152;-96
2023/03/20 12:15:27;;;;;;;13.43;8.40;;;8.40;99.90;;;;;;6213503;23;20192;-96
2023/03/20 12:21:09;;;;;;;11.70;7.87;;;8.40;99.90;;;;;;6232513;23;20187;-96
2023/03/20 12:23:46;;;;;;;14.63;8.20;;;8.30;99.90;;;;;;6236580;23;20551;-96
2023/03/20 12:26:24;;;;;;;12.73;8.73;;;8.30;99.90;;;;;;6238276;23;20202;-96
2023/03/20 12:29:03;;;;;;;12.90;8.53;;;8.40;99.90;;;;;;6234679;23;20172;-96
2023/03/20 12:31:44;;;;;;;11.23;8.57;;;8.30;99.90;;;;;;6211102;23;20181;-96
2023/03/20 12:34:22;;;;;;;12.63;8.87;;;8.40;99.90;;;;;;6234169;23;20176;-96
2023/03/20 12:36:56;;;;;;;13.87;9.87;;;8.40;99.90;;;;;;6219865;23;20184;-95
2023/03/20 12:39:44;;;;;;;12.93;9.23;;;8.40;99.90;;;;;;6218186;23;20502;-94
2023/03/20 12:42:30;;;;;;;15.20;10.33;;;8.40;99.90;;;;;;6220454;23;20187;-95
2023/03/20 12:45:12;;;;;;;12.17;9.33;;;8.40;99.90;;;;;;6195780;23;20196;-94
2023/03/20 12:48:21;;;;;;;15.17;10.50;;;8.40;99.90;;;;;;6194280;23;20199;-94
2023/03/20 12:50:57;;;;;;;14.43;10.07;;;8.40;99.90;;;;;;6218372;23;20180;-94
2023/03/20 12:53:45;;;;;;;14.33;10.20;;;8.40;99.90;;;;;;6221999;23;20176;-94
2023/03/20 12:56:33;;;;;;;12.73;10.03;;;8.40;99.90;;;;;;6221190;23;20180;-94
2023/03/20 12:59:11;;;;;;;11.63;9.27;;;8.50;99.90;;;;;;6222326;23;20199;-95
2023/03/20 13:01:51;;;;;;;11.57;9.17;;;8.40;99.90;;;;;;6222905;23;20172;-94
2023/03/20 13:04:45;;;;;;;12.97;8.93;;;8.40;99.90;;;;;;6196738;23;20175;-96
2023/03/20 13:07:21;;;;;;;12.43;8.20;;;8.50;99.90;;;;;;6237964;23;20211;-96
2023/03/20 13:10:10;;;;;;;10.43;8.37;;;8.40;99.90;;;;;;6239778;23;20175;-96
2023/03/20 13:12:54;;;;;;;11.63;8.63;;;8.40;99.90;;;;;;6217247;23;20183;-95
2023/03/20 13:15:44;;;;;;;13.27;9.70;;;8.40;99.90;;;;;;6243486;23;20168;-96
2023/03/20 13:18:23;;;;;;;13.90;10.13;;;8.50;99.90;;;;;;6241954;23;20755;-96
2023/03/20 13:21:00;;;;;;;14.67;10.53;;;8.50;99.90;;;;;;6243981;23;20156;-96
2023/03/20 13:23:52;;;;;;;16.30;11.60;;;8.50;99.90;;;;;;6220973;23;20195;-96
2023/03/20 13:26:37;;;;;;;14.07;10.57;;;8.40;99.90;;;;;;6219424;23;20163;-96
2023/03/20 13:29:20;;;;;;;13.93;10.70;;;8.40;99.90;;;;;;6243287;23;20164;-94
2023/03/20 13:32:04;;;;;;;12.97;10.67;;;8.50;99.90;;;;;;6243511;23;20601;-96
2023/03/20 13:35:20;;;;;;;14.57;10.30;;;8.50;99.90;;;;;;6200715;23;20172;-94
2023/03/20 13:37:56;;;;;;;14.43;10.80;;;8.50;99.90;;;;;;6138081;23;20184;-95
2023/03/20 13:40:31;;;;;;;13.43;10.83;;;8.40;99.90;;;;;;6223584;23;20259;-94
2023/03/20 13:43:12;;;;;;;12.90;10.70;;;8.40;99.90;;;;;;6222223;23;20172;-95
2023/03/20 13:45:46;;;;;;;15.63;10.83;;;8.40;99.90;;;;;;6221381;23;20176;-96
2023/03/20 13:48:30;;;;;;;12.93;10.30;;;8.40;99.90;;;;;;6223226;23;20188;-95
2023/03/20 13:51:14;;;;;;;11.87;9.53;;;8.40;99.90;;;;;;6195149;23;20176;-96
2023/03/20 13:54:01;;;;;;;13.07;10.17;;;8.40;99.90;;;;;;6221575;23;20302;-94
2023/03/20 13:56:42;;;;;;;15.57;10.50;;;8.40;99.90;;;;;;6223589;23;20190;-95
2023/03/20 13:59:41;;;;;;;14.50;9.77;;;8.40;99.90;;;;;;6221595;23;20263;-95
2023/03/20 14:02:29;;;;;;;15.83;10.53;;;8.40;99.90;;;;;;6202394;23;20238;-95
2023/03/20 14:05:13;;;;;;;14.87;10.50;;;8.40;99.90;;;;;;6222799;23;20177;-95
2023/03/20 14:07:46;;;;;;;13.13;10.57;;;8.40;99.90;;;;;;6221284;23;20192;-94